AIRPORT ID: KHSR

DATE: 2021-12-01 ZULU TIME: 15.15 LOCAL TIME: 8.15


METAR KHSR 011515Z AUTO 19010G15KT 10SM 06/01 A2992

ALTIMETER: A2992 Q1013

DENSITY ALT: 2800 Ft

WIND DIRECT: 200

WIND SPEED: 10 Gust

WIND CONDITIONS:

VISIBILTY: 10SM 9999M

TEMPERATURE: 42 F 6 C

DEW POINT: 33 F 1 C

HUMID: 70%

LCL: 1,000-3,000 feet

RADIO CHECK: 0

ADVISARIES: 2

GREETINGS: 0

CONVERSATIONS: 2